createdAt,value
2022-08-14T00:02:01.490Z,35.10
2022-08-14T00:04:35.795Z,35.10
2022-08-14T00:07:11.240Z,35.20
2022-08-14T00:09:55.144Z,35.20
2022-08-14T00:12:34.127Z,35.20
2022-08-14T00:15:19.357Z,35.10
2022-08-14T00:17:53.458Z,35.30
2022-08-14T00:20:30.275Z,35.20
2022-08-14T00:23:08.194Z,35.40
2022-08-14T00:25:42.022Z,35.20
2022-08-14T00:28:15.567Z,35.10
2022-08-14T00:30:46.643Z,35.10
2022-08-14T00:33:16.292Z,35.10
2022-08-14T00:36:37.635Z,35.20
2022-08-14T00:38:35.262Z,35.20
2022-08-14T00:41:05.056Z,35.00
2022-08-14T00:43:33.260Z,35.20
2022-08-14T00:46:05.274Z,35.10
2022-08-14T00:48:36.711Z,35.30
2022-08-14T00:51:09.772Z,35.20
2022-08-14T00:53:39.888Z,35.40
2022-08-14T00:56:14.219Z,35.30
2022-08-14T00:58:45.090Z,35.10
2022-08-14T01:01:16.723Z,35.10
2022-08-14T01:03:45.212Z,35.30
2022-08-14T01:06:16.913Z,35.30
2022-08-14T01:08:57.664Z,35.50
2022-08-14T01:11:35.466Z,35.40
2022-08-14T01:14:25.538Z,35.40
2022-08-14T01:16:55.555Z,35.60
2022-08-14T01:19:41.658Z,35.40
2022-08-14T01:22:13.360Z,35.40
2022-08-14T01:24:47.043Z,35.40
2022-08-14T01:27:18.618Z,35.40
2022-08-14T01:30:01.416Z,35.40
2022-08-14T01:32:37.501Z,35.40
2022-08-14T01:35:20.333Z,35.30
2022-08-14T01:38:00.105Z,35.30
2022-08-14T01:40:37.196Z,35.30
2022-08-14T01:43:18.558Z,35.40
2022-08-14T01:46:06.127Z,35.40
2022-08-14T01:48:37.590Z,35.50
2022-08-14T01:51:19.259Z,35.50
2022-08-14T01:53:54.632Z,35.70
2022-08-14T01:56:37.348Z,35.70
2022-08-14T01:59:09.669Z,35.50
2022-08-14T02:01:38.433Z,35.30
2022-08-14T02:04:20.729Z,35.30
2022-08-14T02:06:59.260Z,35.40
2022-08-14T02:09:30.393Z,35.20
2022-08-14T02:11:59.962Z,35.40
2022-08-14T02:14:32.119Z,35.30
2022-08-14T02:17:00.928Z,35.40
2022-08-14T02:19:32.408Z,35.50
2022-08-14T02:22:03.369Z,35.50
2022-08-14T02:24:40.231Z,35.50
2022-08-14T02:28:25.238Z,35.40
2022-08-14T02:30:02.500Z,35.30
2022-08-14T02:32:37.273Z,35.30
2022-08-14T02:35:10.188Z,35.30
2022-08-14T02:37:48.266Z,35.40
2022-08-14T02:40:19.399Z,35.40
2022-08-14T02:42:55.121Z,35.40
2022-08-14T02:45:32.904Z,35.40
2022-08-14T02:48:02.367Z,35.30
2022-08-14T02:50:33.576Z,35.30
2022-08-14T02:53:02.980Z,35.40
2022-08-14T02:55:33.196Z,35.50
2022-08-14T02:58:03.494Z,35.60
2022-08-14T03:00:35.634Z,35.60
2022-08-14T03:03:08.414Z,35.70
2022-08-14T03:05:41.224Z,35.50
2022-08-14T03:08:15.154Z,35.50
2022-08-14T03:10:48.903Z,35.50
2022-08-14T03:13:20.763Z,35.50
2022-08-14T03:15:56.152Z,35.30
2022-08-14T03:18:31.511Z,35.50
2022-08-14T03:21:01.595Z,35.60
2022-08-14T03:23:38.141Z,35.60
2022-08-14T03:26:09.632Z,35.60
2022-08-14T03:28:43.350Z,35.60
2022-08-14T03:31:13.051Z,35.60
2022-08-14T03:33:43.085Z,35.50
2022-08-14T03:37:38.941Z,35.50
2022-08-14T03:39:14.473Z,35.40
2022-08-14T03:41:52.779Z,35.20
2022-08-14T03:45:20.037Z,35.20
2022-08-14T03:47:09.043Z,35.20
2022-08-14T03:49:42.010Z,35.30
2022-08-14T03:52:38.487Z,35.60
2022-08-14T03:55:00.194Z,36.30
2022-08-14T03:57:32.254Z,35.70
2022-08-14T04:00:03.020Z,36.00
2022-08-14T04:02:37.073Z,35.90
2022-08-14T04:05:11.883Z,35.90
2022-08-14T04:07:50.021Z,36.00
2022-08-14T04:10:31.896Z,35.70
2022-08-14T04:13:03.640Z,35.60
2022-08-14T04:15:40.908Z,35.80
2022-08-14T04:18:20.512Z,35.80
2022-08-14T04:20:54.653Z,35.80
2022-08-14T04:23:29.709Z,36.00
2022-08-14T04:26:01.817Z,36.00
2022-08-14T04:28:58.794Z,35.90
2022-08-14T04:31:25.108Z,36.10
2022-08-14T04:34:08.498Z,35.80
2022-08-14T04:36:59.236Z,35.70
2022-08-14T04:39:46.402Z,35.70
2022-08-14T04:42:32.560Z,35.70
2022-08-14T04:45:01.891Z,35.70
2022-08-14T04:47:47.182Z,35.80
2022-08-14T04:50:37.919Z,35.90
2022-08-14T04:53:12.966Z,35.80
2022-08-14T04:55:45.016Z,35.90
2022-08-14T04:58:21.284Z,36.10
2022-08-14T05:00:52.469Z,36.10
2022-08-14T05:03:21.448Z,36.20
2022-08-14T05:05:54.894Z,36.30
2022-08-14T05:08:32.332Z,36.50
2022-08-14T05:11:13.508Z,36.50
2022-08-14T05:16:33.208Z,36.70
2022-08-14T05:19:18.733Z,37.30
2022-08-14T05:21:57.878Z,36.90
2022-08-14T05:24:29.535Z,36.90
2022-08-14T05:26:57.528Z,37.10
2022-08-14T05:29:27.475Z,37.30
2022-08-14T05:31:58.222Z,37.30
2022-08-14T05:34:31.558Z,37.60
2022-08-14T05:37:02.204Z,37.60
2022-08-14T05:39:31.973Z,37.80
2022-08-14T05:42:00.551Z,37.90
2022-08-14T05:44:30.903Z,38.10
2022-08-14T05:47:00.421Z,38.50
2022-08-14T05:49:33.576Z,38.70
2022-08-14T05:52:02.625Z,38.80
2022-08-14T05:54:35.878Z,39.00
2022-08-14T05:57:04.961Z,39.30
2022-08-14T05:59:38.926Z,39.60
2022-08-14T06:02:09.989Z,39.90
2022-08-14T06:04:38.627Z,40.30
2022-08-14T06:07:07.054Z,40.60
2022-08-14T06:09:36.099Z,40.90
2022-08-14T06:12:09.768Z,41.20
2022-08-14T06:14:38.689Z,41.40
2022-08-14T06:17:08.437Z,41.60
2022-08-14T06:19:36.335Z,41.80
2022-08-14T06:22:04.689Z,41.90
2022-08-14T06:24:34.879Z,42.10
2022-08-14T06:27:06.503Z,42.30
2022-08-14T06:29:38.768Z,42.40
2022-08-14T06:32:38.633Z,42.60
2022-08-14T06:35:09.738Z,42.80
2022-08-14T06:37:43.269Z,42.80
2022-08-14T06:40:25.390Z,43.10
2022-08-14T06:42:56.579Z,43.50
2022-08-14T06:45:26.342Z,44.50
2022-08-14T06:47:58.597Z,46.00
2022-08-14T06:50:28.740Z,48.30
2022-08-14T06:52:59.260Z,51.00
2022-08-14T06:55:28.293Z,54.20
2022-08-14T06:57:58.340Z,56.30
2022-08-14T07:00:30.940Z,57.00
2022-08-14T07:03:19.436Z,56.80
2022-08-14T07:05:57.606Z,55.70
2022-08-14T07:08:29.577Z,54.60
2022-08-14T07:11:03.864Z,53.30
2022-08-14T07:13:32.006Z,52.20
2022-08-14T07:16:05.382Z,51.70
2022-08-14T07:18:37.270Z,51.00
2022-08-14T07:21:09.876Z,50.10
2022-08-14T07:23:40.279Z,49.80
2022-08-14T07:26:13.275Z,48.80
2022-08-14T07:28:43.472Z,48.20
2022-08-14T07:31:13.518Z,47.60
2022-08-14T07:33:50.673Z,47.20
2022-08-14T07:36:27.513Z,46.70
2022-08-14T07:38:59.446Z,46.50
2022-08-14T07:41:31.225Z,46.10
2022-08-14T07:44:28.789Z,45.50
2022-08-14T07:46:50.608Z,49.50
2022-08-14T07:49:20.876Z,44.80
2022-08-14T07:51:52.135Z,43.80
2022-08-14T07:54:23.296Z,43.60
2022-08-14T07:57:00.044Z,43.10
2022-08-14T07:59:42.257Z,43.00
2022-08-14T08:02:18.815Z,42.00
2022-08-14T08:04:54.547Z,42.50
2022-08-14T08:07:23.876Z,41.90
2022-08-14T08:09:57.955Z,41.70
2022-08-14T08:12:30.229Z,41.30
2022-08-14T08:15:06.006Z,41.20
2022-08-14T08:17:38.752Z,40.90
2022-08-14T08:20:20.258Z,40.40
2022-08-14T08:22:49.957Z,39.90
2022-08-14T08:25:24.355Z,39.60
2022-08-14T08:28:08.038Z,39.50
2022-08-14T08:30:37.906Z,39.40
2022-08-14T08:33:18.549Z,38.80
2022-08-14T08:35:50.768Z,38.60
2022-08-14T08:39:18.418Z,38.40
2022-08-14T08:41:11.378Z,38.30
2022-08-14T08:43:46.751Z,38.10
2022-08-14T08:46:18.521Z,37.70
2022-08-14T08:48:53.701Z,37.60
2022-08-14T08:51:30.632Z,37.40
2022-08-14T08:54:00.951Z,36.80
2022-08-14T08:56:40.768Z,36.90
2022-08-14T08:59:21.865Z,37.40
2022-08-14T09:01:56.396Z,37.40
2022-08-14T09:04:26.336Z,36.70
2022-08-14T09:07:10.318Z,36.70
2022-08-14T09:09:54.412Z,36.30
2022-08-14T09:12:32.103Z,36.10
2022-08-14T09:15:12.258Z,35.80
2022-08-14T09:17:41.621Z,35.50
2022-08-14T09:20:12.483Z,35.50
2022-08-14T09:22:47.473Z,35.20
2022-08-14T09:25:17.247Z,34.90
2022-08-14T09:27:48.171Z,34.90
2022-08-14T09:30:32.886Z,35.00
2022-08-14T09:33:30.504Z,35.00
2022-08-14T09:36:12.595Z,36.00
2022-08-14T09:38:53.593Z,34.20
2022-08-14T09:42:21.004Z,34.30
2022-08-14T09:44:39.971Z,34.50
2022-08-14T09:47:14.905Z,34.10
2022-08-14T09:49:43.469Z,33.90
2022-08-14T09:52:33.011Z,33.40
2022-08-14T09:55:04.742Z,33.00
2022-08-14T09:57:33.464Z,32.70
2022-08-14T10:00:30.112Z,32.20
2022-08-14T10:03:05.578Z,31.70
2022-08-14T10:05:39.168Z,31.00
2022-08-14T10:08:26.185Z,30.80
2022-08-14T10:11:02.693Z,31.20
2022-08-14T10:13:52.539Z,30.30
2022-08-14T10:16:25.860Z,30.00
2022-08-14T10:19:07.566Z,29.80
2022-08-14T10:21:58.753Z,29.10
2022-08-14T10:24:36.331Z,28.80
2022-08-14T10:27:16.305Z,28.60
2022-08-14T10:29:46.165Z,28.40
2022-08-14T10:32:17.372Z,28.30
2022-08-14T10:34:52.901Z,28.10
2022-08-14T10:37:23.664Z,28.00
2022-08-14T10:40:10.604Z,28.10
2022-08-14T10:42:43.786Z,28.00
2022-08-14T10:45:21.054Z,28.00
2022-08-14T10:48:07.654Z,28.10
2022-08-14T10:50:41.625Z,28.10
2022-08-14T10:53:10.500Z,28.30
2022-08-14T10:55:45.318Z,28.20
2022-08-14T10:58:17.633Z,28.50
2022-08-14T11:00:57.139Z,28.50
2022-08-14T11:03:35.798Z,29.00
2022-08-14T11:06:19.702Z,28.60
2022-08-14T11:08:50.678Z,28.60
2022-08-14T11:11:20.824Z,29.00
2022-08-14T11:13:50.940Z,28.80
2022-08-14T11:16:19.651Z,28.60
2022-08-14T11:18:50.973Z,28.50
2022-08-14T11:21:22.989Z,28.60
2022-08-14T11:23:53.761Z,28.70
2022-08-14T11:26:27.969Z,28.60
2022-08-14T11:29:02.422Z,28.80
2022-08-14T11:31:38.765Z,29.10
2022-08-14T11:34:10.418Z,29.20
2022-08-14T11:37:02.700Z,29.10
2022-08-14T11:39:37.761Z,29.10
2022-08-14T11:42:58.038Z,29.10
2022-08-14T11:45:00.156Z,28.80
2022-08-14T11:47:35.161Z,29.10
2022-08-14T11:50:24.902Z,28.80
2022-08-14T11:52:55.157Z,28.80
2022-08-14T11:55:35.872Z,28.80
2022-08-14T11:58:08.687Z,28.70
2022-08-14T12:00:47.707Z,29.00
2022-08-14T12:03:19.789Z,29.10
2022-08-14T12:05:52.273Z,29.00
2022-08-14T12:08:24.267Z,29.20
2022-08-14T12:10:58.695Z,29.00
2022-08-14T12:13:32.567Z,29.10
2022-08-14T12:16:15.186Z,29.10
2022-08-14T12:18:50.803Z,29.10
2022-08-14T12:21:22.220Z,29.30
2022-08-14T12:24:02.012Z,29.10
2022-08-14T12:26:39.428Z,29.00
2022-08-14T12:29:10.624Z,28.80
2022-08-14T12:31:44.702Z,28.70
2022-08-14T12:34:20.665Z,28.80
2022-08-14T12:36:51.387Z,28.80
2022-08-14T12:39:21.128Z,28.50
2022-08-14T12:41:57.273Z,28.50
2022-08-14T12:44:32.041Z,28.50
2022-08-14T12:47:13.583Z,28.70
2022-08-14T12:49:53.933Z,28.80
2022-08-14T12:52:36.060Z,28.70
2022-08-14T12:55:18.255Z,28.70
2022-08-14T12:57:49.463Z,28.70
2022-08-14T13:00:24.308Z,28.80
2022-08-14T13:03:02.608Z,28.80
2022-08-14T13:05:36.195Z,28.60
2022-08-14T13:08:22.523Z,28.40
2022-08-14T13:10:58.058Z,28.50
2022-08-14T13:13:34.425Z,28.60
2022-08-14T13:16:20.163Z,28.80
2022-08-14T13:18:58.361Z,28.70
2022-08-14T13:21:31.201Z,28.90
2022-08-14T13:24:21.139Z,29.00
2022-08-14T13:26:51.917Z,28.90
2022-08-14T13:29:23.350Z,28.80
2022-08-14T13:31:55.061Z,28.90
2022-08-14T13:34:26.772Z,28.90
2022-08-14T13:36:59.344Z,29.30
2022-08-14T13:39:36.291Z,28.80
2022-08-14T13:42:13.135Z,28.60
2022-08-14T13:44:43.109Z,28.70
2022-08-14T13:47:11.259Z,28.60
2022-08-14T13:49:58.034Z,28.60
2022-08-14T13:52:52.517Z,28.70
2022-08-14T13:55:19.112Z,28.60
2022-08-14T13:57:57.708Z,28.80
2022-08-14T14:00:35.431Z,28.60
2022-08-14T14:03:07.321Z,28.90
2022-08-14T14:05:53.653Z,29.10
2022-08-14T14:08:43.528Z,29.00
2022-08-14T14:11:15.814Z,29.00
2022-08-14T14:13:45.251Z,29.00
2022-08-14T14:16:26.147Z,29.10
2022-08-14T14:19:09.078Z,29.10
2022-08-14T14:21:40.324Z,29.10
2022-08-14T14:24:14.903Z,29.00
2022-08-14T14:26:46.897Z,28.90
2022-08-14T14:29:15.028Z,28.70
2022-08-14T14:31:46.233Z,28.80
2022-08-14T14:34:29.483Z,28.60
2022-08-14T14:37:04.476Z,28.50
2022-08-14T14:39:37.388Z,28.30
2022-08-14T14:42:08.177Z,28.10
2022-08-14T14:44:40.481Z,28.20
2022-08-14T14:47:13.414Z,28.10
2022-08-14T14:49:54.473Z,28.10
2022-08-14T14:52:27.522Z,28.00
2022-08-14T14:54:57.244Z,28.00
2022-08-14T14:57:35.874Z,28.30
2022-08-14T15:00:08.587Z,28.30
2022-08-14T15:02:41.238Z,28.30
2022-08-14T15:05:11.171Z,28.30
2022-08-14T15:07:42.462Z,28.30
2022-08-14T15:10:27.929Z,28.30
2022-08-14T15:13:04.043Z,28.30
2022-08-14T15:15:32.993Z,28.30
2022-08-14T15:18:01.539Z,28.30
2022-08-14T15:20:31.200Z,28.30
2022-08-14T15:23:11.809Z,28.20
2022-08-14T15:25:40.602Z,28.10
2022-08-14T15:28:11.587Z,28.10
2022-08-14T15:30:41.385Z,28.10
2022-08-14T15:33:10.676Z,28.20
2022-08-14T15:35:44.878Z,28.10
2022-08-14T15:38:17.607Z,28.00
2022-08-14T15:40:51.580Z,28.00
2022-08-14T15:43:25.397Z,28.00
2022-08-14T15:45:56.097Z,28.00
2022-08-14T15:48:24.194Z,27.90
2022-08-14T15:50:52.577Z,28.00
2022-08-14T15:53:23.300Z,28.00
2022-08-14T15:55:52.830Z,28.00
2022-08-14T15:58:21.679Z,28.00
2022-08-14T16:01:07.363Z,28.00
2022-08-14T16:03:40.850Z,27.90
2022-08-14T16:06:15.453Z,27.90
2022-08-14T16:08:50.405Z,27.90
2022-08-14T16:11:32.593Z,27.90
2022-08-14T16:14:01.253Z,27.90
2022-08-14T16:16:47.405Z,27.90
2022-08-14T16:19:19.968Z,27.80
2022-08-14T16:22:02.146Z,27.80
2022-08-14T16:24:59.904Z,27.80
2022-08-14T16:27:37.242Z,27.70
2022-08-14T16:30:12.253Z,27.70
2022-08-14T16:32:55.331Z,27.70
2022-08-14T16:35:25.003Z,27.70
2022-08-14T16:37:55.694Z,27.60
2022-08-14T16:43:04.375Z,27.60
2022-08-14T16:45:43.767Z,27.60
2022-08-14T16:48:57.138Z,27.50
2022-08-14T16:51:01.634Z,27.50
2022-08-14T16:53:36.849Z,27.60
2022-08-14T16:56:17.122Z,27.60
2022-08-14T16:58:53.789Z,27.60
2022-08-14T17:01:27.402Z,27.60
2022-08-14T17:03:58.180Z,27.70
2022-08-14T17:06:45.840Z,27.70
2022-08-14T17:09:35.325Z,27.80
2022-08-14T17:12:08.260Z,27.80
2022-08-14T17:15:01.649Z,27.70
2022-08-14T17:17:45.058Z,27.80
2022-08-14T17:20:54.513Z,27.90
2022-08-14T17:23:15.856Z,28.10
2022-08-14T17:25:49.390Z,28.40
2022-08-14T17:28:49.743Z,28.60
2022-08-14T17:31:12.278Z,28.90
2022-08-14T17:33:51.811Z,28.90
2022-08-14T17:36:22.855Z,29.00
2022-08-14T17:38:59.986Z,29.10
2022-08-14T17:41:36.280Z,29.40
2022-08-14T17:44:21.941Z,29.10
2022-08-14T17:47:04.105Z,29.30
2022-08-14T17:49:33.313Z,29.10
2022-08-14T17:52:07.797Z,29.10
2022-08-14T17:54:47.417Z,29.10
2022-08-14T17:57:24.360Z,29.10
2022-08-14T17:59:58.929Z,29.20
2022-08-14T18:02:31.478Z,29.20
2022-08-14T18:05:03.036Z,29.40
2022-08-14T18:07:59.290Z,29.40
2022-08-14T18:10:52.376Z,29.50
2022-08-14T18:13:10.703Z,29.50
2022-08-14T18:15:42.590Z,29.70
2022-08-14T18:18:13.788Z,29.90
2022-08-14T18:21:23.688Z,30.00
2022-08-14T18:23:32.081Z,29.90
2022-08-14T18:26:01.742Z,30.00
2022-08-14T18:28:51.141Z,30.20
2022-08-14T18:31:42.214Z,30.30
2022-08-14T18:34:31.946Z,30.50
2022-08-14T18:37:14.287Z,30.20
2022-08-14T18:40:02.936Z,30.20
2022-08-14T18:42:44.592Z,30.10
2022-08-14T18:45:18.845Z,30.50
2022-08-14T18:48:14.466Z,30.20
2022-08-14T18:50:52.460Z,30.40
2022-08-14T18:53:24.998Z,30.70
2022-08-14T18:56:00.075Z,30.20
2022-08-14T18:58:46.032Z,30.60
2022-08-14T19:01:24.665Z,30.50
2022-08-14T19:03:57.456Z,30.90
2022-08-14T19:06:56.418Z,30.70
2022-08-14T19:09:54.979Z,31.00
2022-08-14T19:13:04.839Z,31.10
2022-08-14T19:15:35.914Z,31.10
2022-08-14T19:18:27.775Z,30.80
2022-08-14T19:20:59.403Z,31.20
2022-08-14T19:23:44.115Z,30.90
2022-08-14T19:26:34.096Z,30.80
2022-08-14T19:29:25.574Z,31.10
2022-08-14T19:31:56.158Z,31.20
2022-08-14T19:34:35.656Z,30.70
2022-08-14T19:37:06.336Z,31.40
2022-08-14T19:39:49.174Z,31.00
2022-08-14T19:44:58.956Z,30.80
2022-08-14T19:47:38.706Z,31.20
2022-08-14T19:50:39.081Z,31.80
2022-08-14T19:53:10.892Z,31.30
2022-08-14T19:55:45.834Z,31.90
2022-08-14T19:58:14.416Z,31.30
2022-08-14T20:00:52.907Z,31.40
2022-08-14T20:03:24.097Z,32.00
2022-08-14T20:06:03.229Z,31.50
2022-08-14T20:10:58.747Z,31.90
2022-08-14T20:12:00.329Z,31.60
2022-08-14T20:14:20.579Z,31.90
2022-08-14T20:16:52.878Z,31.60
2022-08-14T20:19:28.561Z,31.80
2022-08-14T20:22:04.569Z,31.90
2022-08-14T20:24:50.093Z,31.90
2022-08-14T20:27:34.256Z,31.90
2022-08-14T20:30:37.597Z,32.00
2022-08-14T20:33:11.509Z,32.60
2022-08-14T20:35:43.567Z,32.00
2022-08-14T20:38:29.293Z,32.30
2022-08-14T20:41:05.649Z,32.30
2022-08-14T20:43:53.948Z,32.20
2022-08-14T20:46:29.571Z,32.10
2022-08-14T20:48:59.945Z,32.10
2022-08-14T20:51:37.101Z,32.20
2022-08-14T20:54:07.179Z,32.30
2022-08-14T20:56:40.678Z,32.40
2022-08-14T20:59:17.418Z,32.60
2022-08-14T21:01:51.750Z,32.90
2022-08-14T21:04:27.050Z,32.60
2022-08-14T21:07:35.431Z,32.70
2022-08-14T21:10:06.503Z,32.70
2022-08-14T21:12:36.296Z,32.60
2022-08-14T21:15:11.108Z,32.50
2022-08-14T21:17:43.948Z,32.70
2022-08-14T21:20:26.265Z,32.80
2022-08-14T21:23:00.369Z,32.80
2022-08-14T21:25:31.473Z,32.80
2022-08-14T21:28:04.189Z,32.80
2022-08-14T21:30:46.711Z,33.00
2022-08-14T21:33:21.919Z,33.00
2022-08-14T21:35:54.989Z,32.90
2022-08-14T21:38:34.273Z,33.00
2022-08-14T21:41:42.175Z,33.60
2022-08-14T21:44:18.009Z,33.00
2022-08-14T21:46:50.326Z,33.00
2022-08-14T21:49:22.411Z,33.00
2022-08-14T21:51:57.776Z,33.20
2022-08-14T21:54:49.405Z,33.10
2022-08-14T21:58:46.358Z,33.30
2022-08-14T22:00:34.595Z,33.10
2022-08-14T22:03:02.370Z,33.40
2022-08-14T22:05:32.067Z,33.20
2022-08-14T22:08:00.321Z,34.10
2022-08-14T22:10:30.766Z,33.60
2022-08-14T22:13:01.753Z,33.60
2022-08-14T22:15:31.188Z,33.80
2022-08-14T22:18:00.173Z,33.90
2022-08-14T22:20:32.996Z,33.90
2022-08-14T22:23:05.225Z,34.00
2022-08-14T22:25:41.195Z,33.90
2022-08-14T22:28:15.566Z,33.80
2022-08-14T22:30:44.637Z,33.90
2022-08-14T22:33:13.581Z,33.90
2022-08-14T22:35:43.324Z,34.00
2022-08-14T22:38:35.799Z,34.20
2022-08-14T22:41:25.785Z,34.10
2022-08-14T22:43:47.997Z,34.00
2022-08-14T22:46:20.247Z,34.10
2022-08-14T22:48:50.937Z,34.40
2022-08-14T22:51:23.272Z,34.30
2022-08-14T22:53:54.322Z,34.60
2022-08-14T22:56:29.431Z,34.50
2022-08-14T22:59:00.139Z,34.50
2022-08-14T23:01:55.461Z,34.30
2022-08-14T23:04:35.119Z,34.50
2022-08-14T23:07:14.359Z,34.40
2022-08-14T23:09:55.775Z,34.50
2022-08-14T23:12:27.971Z,34.50
2022-08-14T23:14:57.860Z,34.60
2022-08-14T23:17:39.169Z,34.70
2022-08-14T23:20:19.348Z,34.70
2022-08-14T23:22:52.377Z,34.80
2022-08-14T23:25:58.916Z,34.80
2022-08-14T23:28:33.746Z,34.90
2022-08-14T23:31:02.142Z,34.90
2022-08-14T23:33:35.023Z,34.90
2022-08-14T23:36:04.593Z,35.10
2022-08-14T23:38:54.570Z,35.20
2022-08-14T23:41:22.850Z,35.40
2022-08-14T23:43:54.489Z,35.40
2022-08-14T23:46:34.583Z,35.50
2022-08-14T23:49:03.255Z,35.50
2022-08-14T23:51:36.642Z,35.50
2022-08-14T23:54:48.677Z,35.40
2022-08-14T23:57:02.506Z,36.10
2022-08-14T23:59:32.412Z,35.40
